This is the latest recevied weather packets stored in our database for station/object GW1497. If no packets are shown the sender has not sent any weather packets the latest 10 day(s).
| Time | Temp. | Humidity | Pressure | Rain* | Wind** | Luminosity | Snow |
|---|---|---|---|---|---|---|---|
| 1777533490 | 9.44° C | 99% | 1013.2 hPa | 0 mm | - | - | - |
| 1777533164 | 9.44° C | 99% | 1013.2 hPa | 0 mm | - | - | - |
| 1777529177 | 10° C | 99% | 1013.2 hPa | 0 mm | - | - | - |
| 1777525575 | 10.56° C | 99% | 1013.5 hPa | 0 mm | - | - | - |
| 1777523807 | 10.56° C | 99% | 1013.8 hPa | 0 mm | - | - | - |
| 1777522339 | 10.56° C | 99% | 1013.8 hPa | 0 mm | - | - | - |
| 1777519854 | 11.11° C | 99% | 1013.5 hPa | 13.97 mm | - | - | - |
| 1777518740 | 11.11° C | 99% | 1013.8 hPa | 13.97 mm | - | - | - |
| 1777518380 | 11.11° C | 99% | 1013.8 hPa | 13.97 mm | - | - | - |
| 1777515869 | 12.22° C | 99% | 1013.2 hPa | 10.92 mm | - | - | - |
| 1777515498 | 12.22° C | 99% | 1013.2 hPa | 10.92 mm | - | - | - |
| 1777515131 | 12.22° C | 99% | 1013.2 hPa | 10.92 mm | - | - | - |
| 1777512973 | 12.22° C | 98% | 1012.8 hPa | 10.92 mm | - | - | - |
| 1777507957 | 13.89° C | 92% | 1011.8 hPa | 10.92 mm | - | - | - |
| 1777507230 | 13.89° C | 92% | 1011.8 hPa | 10.92 mm | - | - | - |
| 1777506139 | 14.44° C | 92% | 1011.5 hPa | 10.92 mm | - | - | - |
| 1777500023 | 16.11° C | 96% | 1009.8 hPa | 10.92 mm | - | - | - |
| 1777497889 | 16.67° C | 96% | 1009.1 hPa | 10.92 mm | - | - | - |
| 1777492106 | 15° C | 99% | 1009.1 hPa | 10.67 mm | - | - | - |
| 1777491380 | 15° C | 99% | 1009.4 hPa | 10.67 mm | - | - | - |
| 1777485267 | 17.78° C | 94% | 1009.4 hPa | 4.57 mm | - | - | - |
| 1777481668 | 17.78° C | 94% | 1010.8 hPa | 3.05 mm | - | - | - |
| 1777480578 | 17.78° C | 91% | 1011.1 hPa | 2.79 mm | - | - | - |
| 1777480229 | 18.33° C | 88% | 1011.1 hPa | 2.79 mm | - | - | - |
| 1777477711 | 18.33° C | 90% | 1011.5 hPa | 2.79 mm | - | - | - |
* Rain since midnight (hover to see other rain measurements)
** Current wind speed in m/s (hover to see current wind gust speed)